createdAt,value
2023-02-15T00:02:23.001Z,27.65
2023-02-15T00:04:52.625Z,24.98
2023-02-15T00:07:22.314Z,26.23
2023-02-15T00:09:51.585Z,26.92
2023-02-15T00:12:21.244Z,30.25
2023-02-15T00:14:51.941Z,29.50
2023-02-15T00:17:23.755Z,27.35
2023-02-15T00:19:53.503Z,33.13
2023-02-15T00:22:23.605Z,29.52
2023-02-15T00:24:53.902Z,29.92
2023-02-15T00:27:23.152Z,31.08
2023-02-15T00:29:54.699Z,30.85
2023-02-15T00:32:24.146Z,30.88
2023-02-15T00:34:53.189Z,33.38
2023-02-15T00:37:22.286Z,32.10
2023-02-15T00:39:51.349Z,31.95
2023-02-15T00:42:20.411Z,31.15
2023-02-15T00:44:49.509Z,31.27
2023-02-15T00:47:19.930Z,31.25
2023-02-15T00:49:49.070Z,29.55
2023-02-15T00:52:18.099Z,30.88
2023-02-15T00:54:47.680Z,32.38
2023-02-15T00:57:19.451Z,29.13
2023-02-15T01:02:19.520Z,28.60
2023-02-15T01:04:50.954Z,29.30
2023-02-15T01:07:20.375Z,30.55
2023-02-15T01:09:49.591Z,30.92
2023-02-15T01:12:18.974Z,32.55
2023-02-15T01:14:51.242Z,32.10
2023-02-15T01:17:20.932Z,30.95
2023-02-15T01:19:52.416Z,29.65
2023-02-15T01:22:22.643Z,29.42
2023-02-15T01:24:52.712Z,27.65
2023-02-15T01:27:22.144Z,31.48
2023-02-15T01:29:52.434Z,32.50
2023-02-15T01:32:21.965Z,32.35
2023-02-15T01:34:52.821Z,29.35
2023-02-15T01:37:22.601Z,29.88
2023-02-15T01:39:51.786Z,28.60
2023-02-15T01:42:24.605Z,30.15
2023-02-15T01:44:55.179Z,30.02
2023-02-15T01:50:02.877Z,28.88
2023-02-15T01:52:32.244Z,30.80
2023-02-15T01:55:01.496Z,28.77
2023-02-15T01:57:32.747Z,28.25
2023-02-15T02:00:03.413Z,28.48
2023-02-15T02:02:42.489Z,32.33
2023-02-15T02:05:13.205Z,29.35
2023-02-15T02:07:44.045Z,30.90
2023-02-15T02:10:14.521Z,29.27
2023-02-15T02:12:44.623Z,29.35
2023-02-15T02:15:14.261Z,29.75
2023-02-15T02:17:47.834Z,31.02
2023-02-15T02:20:32.972Z,28.83
2023-02-15T02:23:20.329Z,29.75
2023-02-15T02:26:01.159Z,27.75
2023-02-15T02:28:44.853Z,27.33
2023-02-15T02:31:26.527Z,29.95
2023-02-15T02:34:01.248Z,32.22
2023-02-15T02:36:35.136Z,30.58
2023-02-15T02:39:15.928Z,30.20
2023-02-15T02:41:48.776Z,30.05
2023-02-15T02:44:21.000Z,28.90
2023-02-15T02:46:53.587Z,28.35
2023-02-15T02:49:35.232Z,29.92
2023-02-15T02:52:05.773Z,28.97
2023-02-15T02:54:37.516Z,28.77
2023-02-15T02:57:10.338Z,29.05
2023-02-15T03:02:14.195Z,28.15
2023-02-15T03:04:47.781Z,31.55
2023-02-15T03:07:22.918Z,31.17
2023-02-15T03:09:54.266Z,29.63
2023-02-15T03:12:24.791Z,28.23
2023-02-15T03:14:57.252Z,30.65
2023-02-15T03:17:29.382Z,28.67
2023-02-15T03:20:01.776Z,30.40
2023-02-15T03:22:34.326Z,28.70
2023-02-15T03:25:05.804Z,27.75
2023-02-15T03:30:04.981Z,27.95
2023-02-15T03:32:35.270Z,30.30
2023-02-15T03:35:05.978Z,31.20
2023-02-15T03:37:38.144Z,28.38
2023-02-15T03:40:24.366Z,29.08
2023-02-15T03:42:56.401Z,30.00
2023-02-15T03:45:28.148Z,27.60
2023-02-15T03:50:47.153Z,30.83
2023-02-15T03:53:17.892Z,28.88
2023-02-15T03:55:49.203Z,28.05
2023-02-15T03:58:47.259Z,32.15
2023-02-15T04:01:39.916Z,31.23
2023-02-15T04:04:12.448Z,34.63
2023-02-15T04:06:43.285Z,31.95
2023-02-15T04:09:30.295Z,37.70
2023-02-15T04:12:00.656Z,40.55
2023-02-15T04:14:47.455Z,40.28
2023-02-15T04:17:16.875Z,42.60
2023-02-15T04:20:03.964Z,44.05
2023-02-15T04:22:52.483Z,43.65
2023-02-15T04:25:24.278Z,44.75
2023-02-15T04:27:54.782Z,46.50
2023-02-15T04:30:24.883Z,47.33
2023-02-15T04:32:54.268Z,44.83
2023-02-15T04:35:23.882Z,49.28
2023-02-15T04:37:54.755Z,48.50
2023-02-15T04:40:23.893Z,48.78
2023-02-15T04:42:53.223Z,49.47
2023-02-15T04:45:22.305Z,50.88
2023-02-15T04:47:51.509Z,45.83
2023-02-15T04:50:20.654Z,45.95
2023-02-15T04:52:50.113Z,46.95
2023-02-15T04:55:20.439Z,49.30
2023-02-15T04:57:49.433Z,46.03
2023-02-15T05:00:18.768Z,49.00
2023-02-15T05:02:48.014Z,48.58
2023-02-15T05:05:17.374Z,49.50
2023-02-15T05:07:46.387Z,49.47
2023-02-15T05:10:15.637Z,49.25
2023-02-15T05:12:46.045Z,47.88
2023-02-15T05:15:15.287Z,45.33
2023-02-15T05:17:44.303Z,52.88
2023-02-15T05:20:13.468Z,50.05
2023-02-15T05:25:58.443Z,48.90
2023-02-15T05:28:30.715Z,47.78
2023-02-15T05:31:03.835Z,47.67
2023-02-15T05:33:33.335Z,46.72
2023-02-15T05:36:03.433Z,45.92
2023-02-15T05:38:33.161Z,49.22
2023-02-15T05:41:02.438Z,44.58
2023-02-15T05:43:33.498Z,46.92
2023-02-15T05:46:04.314Z,46.22
2023-02-15T05:48:34.910Z,43.20
2023-02-15T05:51:05.571Z,44.15
2023-02-15T05:53:35.837Z,46.85
2023-02-15T05:56:06.158Z,43.03
2023-02-15T05:58:37.743Z,42.70
2023-02-15T06:01:11.235Z,41.97
2023-02-15T06:03:40.872Z,42.70
2023-02-15T06:06:10.307Z,40.13
2023-02-15T06:08:40.049Z,41.03
2023-02-15T06:11:09.338Z,43.10
2023-02-15T06:13:39.767Z,41.08
2023-02-15T06:16:09.452Z,40.05
2023-02-15T06:18:38.437Z,40.90
2023-02-15T06:21:07.494Z,40.22
2023-02-15T06:23:36.524Z,40.25
2023-02-15T06:26:05.620Z,41.65
2023-02-15T06:28:34.552Z,41.05
2023-02-15T06:31:05.082Z,38.40
2023-02-15T06:33:34.928Z,40.05
2023-02-15T06:36:04.769Z,39.53
2023-02-15T06:38:34.029Z,38.58
2023-02-15T06:41:03.658Z,41.08
2023-02-15T06:43:32.675Z,37.92
2023-02-15T06:46:02.043Z,38.75
2023-02-15T06:48:32.797Z,37.78
2023-02-15T06:51:01.939Z,38.85
2023-02-15T06:53:31.008Z,38.47
2023-02-15T06:56:04.065Z,37.15
2023-02-15T06:58:33.115Z,37.53
2023-02-15T07:01:02.365Z,40.17
2023-02-15T07:03:33.367Z,37.53
2023-02-15T07:06:03.559Z,37.47
2023-02-15T07:08:33.739Z,37.78
2023-02-15T07:11:17.558Z,35.60
2023-02-15T07:13:46.745Z,36.65
2023-02-15T07:16:16.082Z,37.28
2023-02-15T07:18:46.584Z,37.85
2023-02-15T07:21:15.735Z,41.58
2023-02-15T07:23:44.677Z,39.92
2023-02-15T07:26:14.309Z,38.35
2023-02-15T07:28:43.326Z,37.90
2023-02-15T07:31:15.591Z,42.08
2023-02-15T07:33:46.068Z,38.58
2023-02-15T07:36:15.412Z,40.17
2023-02-15T07:38:45.808Z,39.47
2023-02-15T07:41:15.848Z,38.90
2023-02-15T07:43:46.150Z,40.10
2023-02-15T07:46:17.780Z,37.10
2023-02-15T07:48:49.388Z,40.47
2023-02-15T07:51:18.888Z,38.42
2023-02-15T07:53:49.112Z,38.47
2023-02-15T07:56:18.908Z,40.03
2023-02-15T07:58:54.900Z,36.53
2023-02-15T08:01:25.925Z,38.50
2023-02-15T08:03:57.943Z,36.50
2023-02-15T08:06:28.816Z,36.83
2023-02-15T08:08:57.931Z,34.25
2023-02-15T08:11:30.344Z,33.25
2023-02-15T08:14:01.116Z,34.85
2023-02-15T08:16:31.662Z,33.63
2023-02-15T08:19:04.207Z,34.47
2023-02-15T08:21:34.196Z,32.05
2023-02-15T08:24:03.825Z,32.33
2023-02-15T08:26:33.860Z,32.50
2023-02-15T08:29:03.334Z,32.78
2023-02-15T08:31:32.718Z,32.72
2023-02-15T08:34:03.157Z,33.42
2023-02-15T08:36:32.821Z,30.67
2023-02-15T08:39:02.730Z,28.45
2023-02-15T08:41:32.782Z,30.08
2023-02-15T08:44:03.298Z,30.52
2023-02-15T08:46:33.794Z,30.98
2023-02-15T08:49:04.218Z,30.08
2023-02-15T08:51:34.202Z,28.45
2023-02-15T08:54:05.123Z,28.38
2023-02-15T08:56:35.807Z,28.90
2023-02-15T08:59:05.843Z,28.52
2023-02-15T09:01:35.783Z,27.27
2023-02-15T09:04:09.772Z,26.13
2023-02-15T09:06:39.694Z,29.88
2023-02-15T09:09:09.596Z,26.88
2023-02-15T09:11:39.508Z,26.02
2023-02-15T09:14:10.290Z,24.40
2023-02-15T09:16:40.511Z,25.73
2023-02-15T09:19:11.127Z,25.88
2023-02-15T09:21:40.698Z,23.98
2023-02-15T09:24:11.575Z,23.52
2023-02-15T09:26:42.697Z,23.23
2023-02-15T09:29:12.427Z,22.33
2023-02-15T09:31:45.369Z,22.33
2023-02-15T09:34:17.769Z,21.77
2023-02-15T09:39:16.467Z,20.42
2023-02-15T09:42:04.766Z,20.77
2023-02-15T09:44:43.073Z,19.70
2023-02-15T09:47:22.184Z,21.13
2023-02-15T09:49:55.644Z,20.25
2023-02-15T09:52:36.818Z,19.48
2023-02-15T09:55:13.577Z,18.65
2023-02-15T09:57:46.939Z,17.52
2023-02-15T10:00:21.018Z,20.08
2023-02-15T10:03:02.094Z,20.10
2023-02-15T10:05:37.917Z,19.92
2023-02-15T10:08:14.877Z,21.73
2023-02-15T10:10:48.787Z,19.05
2023-02-15T10:13:24.081Z,18.85
2023-02-15T10:16:00.458Z,18.10
2023-02-15T10:18:54.143Z,17.00
2023-02-15T10:21:32.266Z,17.33
2023-02-15T10:24:09.305Z,18.25
2023-02-15T10:26:43.357Z,18.40
2023-02-15T10:29:18.964Z,17.15
2023-02-15T10:31:52.033Z,17.20
2023-02-15T10:34:22.093Z,15.63
2023-02-15T10:37:09.103Z,14.77
2023-02-15T10:39:44.312Z,15.60
2023-02-15T10:42:18.881Z,14.68
2023-02-15T10:44:57.243Z,15.13
2023-02-15T10:47:36.508Z,14.60
2023-02-15T10:50:12.619Z,15.23
2023-02-15T10:52:50.459Z,14.77
2023-02-15T10:55:24.174Z,15.23
2023-02-15T10:58:00.929Z,14.60
2023-02-15T11:00:34.014Z,14.05
2023-02-15T11:03:12.679Z,15.25
2023-02-15T11:05:45.684Z,13.07
2023-02-15T11:08:19.344Z,12.63
2023-02-15T11:10:52.296Z,11.88
2023-02-15T11:13:22.342Z,13.48
2023-02-15T11:15:54.672Z,13.80
2023-02-15T11:18:28.392Z,12.68
2023-02-15T11:20:59.440Z,12.65
2023-02-15T11:23:30.531Z,12.13
2023-02-15T11:26:01.083Z,12.68
2023-02-15T11:28:33.320Z,12.48
2023-02-15T11:31:05.391Z,12.60
2023-02-15T11:33:40.324Z,11.65
2023-02-15T11:36:12.220Z,14.02
2023-02-15T11:38:44.909Z,12.07
2023-02-15T11:41:14.819Z,12.50
2023-02-15T11:43:46.462Z,11.40
2023-02-15T11:46:16.429Z,11.15
2023-02-15T11:48:45.749Z,12.85
2023-02-15T11:51:17.200Z,12.88
2023-02-15T11:53:48.479Z,12.27
2023-02-15T11:56:18.741Z,10.83
2023-02-15T11:58:50.619Z,11.05
2023-02-15T12:01:24.146Z,9.95
2023-02-15T12:03:54.446Z,11.07
2023-02-15T12:06:26.359Z,11.68
2023-02-15T12:09:00.526Z,11.25
2023-02-15T12:11:33.467Z,11.77
2023-02-15T12:14:03.642Z,10.70
2023-02-15T12:16:35.237Z,10.98
2023-02-15T12:19:05.226Z,10.75
2023-02-15T12:21:35.828Z,10.07
2023-02-15T12:24:06.899Z,9.85
2023-02-15T12:26:37.502Z,9.57
2023-02-15T12:29:10.111Z,9.63
2023-02-15T12:31:41.469Z,10.90
2023-02-15T12:34:13.266Z,9.65
2023-02-15T12:36:45.541Z,10.35
2023-02-15T12:39:27.079Z,9.73
2023-02-15T12:42:03.504Z,9.45
2023-02-15T12:44:33.565Z,9.63
2023-02-15T12:47:04.828Z,9.90
2023-02-15T12:49:34.968Z,8.85
2023-02-15T12:52:07.822Z,9.48
2023-02-15T12:54:43.418Z,9.15
2023-02-15T12:57:17.621Z,10.10
2023-02-15T12:59:51.129Z,8.48
2023-02-15T13:02:24.132Z,9.68
2023-02-15T13:04:53.560Z,8.75
2023-02-15T13:07:24.195Z,8.27
2023-02-15T13:09:54.819Z,8.52
2023-02-15T13:12:24.727Z,9.20
2023-02-15T13:14:55.790Z,9.27
2023-02-15T13:17:30.341Z,8.63
2023-02-15T13:20:00.558Z,8.50
2023-02-15T13:22:34.579Z,8.85
2023-02-15T13:25:08.156Z,8.77
2023-02-15T13:27:39.703Z,7.70
2023-02-15T13:30:16.930Z,9.20
2023-02-15T13:32:46.364Z,8.25
2023-02-15T13:35:17.571Z,9.15
2023-02-15T13:38:05.769Z,8.02
2023-02-15T13:40:40.276Z,7.90
2023-02-15T13:43:18.493Z,8.75
2023-02-15T13:45:56.708Z,8.18
2023-02-15T13:48:45.008Z,6.82
2023-02-15T13:51:23.750Z,6.93
2023-02-15T13:53:59.991Z,6.63
2023-02-15T13:56:35.484Z,6.85
2023-02-15T13:59:14.827Z,7.15
2023-02-15T14:01:47.257Z,7.72
2023-02-15T14:04:40.499Z,6.78
2023-02-15T14:07:19.484Z,6.00
2023-02-15T14:09:56.139Z,6.80
2023-02-15T14:12:33.929Z,7.50
2023-02-15T14:15:10.175Z,6.40
2023-02-15T14:17:46.654Z,6.75
2023-02-15T14:20:22.326Z,6.90
2023-02-15T14:22:56.718Z,7.38
2023-02-15T14:25:29.537Z,7.68
2023-02-15T14:28:04.345Z,7.05
2023-02-15T14:30:34.739Z,6.05
2023-02-15T14:33:07.613Z,6.90
2023-02-15T14:35:37.604Z,7.20
2023-02-15T14:38:10.430Z,6.45
2023-02-15T14:41:01.293Z,7.07
2023-02-15T14:43:37.759Z,6.22
2023-02-15T14:46:10.527Z,6.20
2023-02-15T14:48:45.435Z,6.75
2023-02-15T14:51:48.556Z,5.72
2023-02-15T14:54:34.143Z,6.57
2023-02-15T14:57:18.150Z,6.20
2023-02-15T14:59:49.718Z,5.70
2023-02-15T15:02:20.293Z,5.28
2023-02-15T15:04:59.396Z,6.80
2023-02-15T15:07:30.201Z,6.70
2023-02-15T15:10:03.763Z,8.05
2023-02-15T15:12:41.152Z,7.82
2023-02-15T15:15:13.946Z,6.95
2023-02-15T15:17:56.723Z,6.70
2023-02-15T15:20:46.842Z,6.28
2023-02-15T15:23:34.601Z,5.50
2023-02-15T15:26:23.677Z,6.00
2023-02-15T15:28:56.175Z,5.05
2023-02-15T15:31:29.822Z,6.25
2023-02-15T15:34:18.109Z,5.13
2023-02-15T15:37:10.928Z,8.27
2023-02-15T15:39:52.630Z,4.88
2023-02-15T15:42:26.461Z,5.55
2023-02-15T15:45:13.979Z,5.38
2023-02-15T15:47:56.164Z,4.80
2023-02-15T15:50:35.745Z,4.45
2023-02-15T15:53:05.848Z,4.87
2023-02-15T15:55:36.549Z,5.07
2023-02-15T15:58:07.892Z,4.05
2023-02-15T16:00:39.390Z,5.78
2023-02-15T16:03:16.360Z,6.07
2023-02-15T16:05:45.453Z,6.72
2023-02-15T16:08:15.424Z,6.25
2023-02-15T16:10:44.869Z,6.43
2023-02-15T16:13:15.684Z,7.47
2023-02-15T16:15:50.541Z,6.70
2023-02-15T16:18:24.200Z,7.30
2023-02-15T16:20:56.018Z,7.53
2023-02-15T16:23:44.717Z,6.38
2023-02-15T16:26:17.801Z,7.78
2023-02-15T16:28:50.726Z,7.38
2023-02-15T16:31:20.232Z,7.75
2023-02-15T16:33:51.114Z,7.75
2023-02-15T16:36:23.460Z,7.43
2023-02-15T16:39:13.773Z,8.27
2023-02-15T16:41:46.981Z,7.15
2023-02-15T16:44:19.029Z,6.88
2023-02-15T16:46:50.136Z,8.85
2023-02-15T16:49:22.055Z,8.90
2023-02-15T16:51:58.405Z,6.57
2023-02-15T16:54:28.664Z,8.10
2023-02-15T16:56:58.021Z,7.88
2023-02-15T16:59:34.578Z,7.13
2023-02-15T17:02:08.648Z,6.90
2023-02-15T17:04:40.266Z,7.03
2023-02-15T17:07:17.741Z,7.22
2023-02-15T17:09:53.802Z,6.28
2023-02-15T17:12:44.254Z,6.28
2023-02-15T17:15:27.261Z,6.40
2023-02-15T17:17:58.208Z,7.28
2023-02-15T17:20:28.975Z,7.22
2023-02-15T17:22:58.755Z,6.90
2023-02-15T17:25:34.971Z,6.53
2023-02-15T17:28:05.386Z,7.53
2023-02-15T17:30:35.860Z,6.75
2023-02-15T17:33:05.970Z,6.35
2023-02-15T17:35:38.677Z,7.65
2023-02-15T17:38:09.215Z,6.95
2023-02-15T17:40:38.466Z,7.65
2023-02-15T17:43:08.509Z,7.05
2023-02-15T17:45:41.514Z,7.32
2023-02-15T17:48:16.637Z,8.13
2023-02-15T17:50:47.532Z,7.85
2023-02-15T17:53:18.470Z,9.00
2023-02-15T17:55:46.547Z,7.68
2023-02-15T17:58:16.869Z,7.53
2023-02-15T18:01:05.783Z,8.27
2023-02-15T18:04:03.888Z,8.02
2023-02-15T18:06:52.510Z,8.80
2023-02-15T18:09:41.235Z,8.70
2023-02-15T18:12:20.243Z,8.95
2023-02-15T18:14:49.456Z,7.88
2023-02-15T18:17:22.365Z,8.48
2023-02-15T18:19:52.344Z,7.70
2023-02-15T18:22:23.366Z,7.65
2023-02-15T18:24:52.543Z,8.68
2023-02-15T18:27:22.580Z,8.38
2023-02-15T18:29:51.961Z,10.35
2023-02-15T18:32:24.088Z,10.38
2023-02-15T18:37:24.215Z,8.65
2023-02-15T18:39:54.587Z,10.18
2023-02-15T18:42:24.693Z,10.95
2023-02-15T18:44:58.097Z,9.80
2023-02-15T18:47:28.216Z,9.70
2023-02-15T18:49:57.669Z,9.13
2023-02-15T18:52:31.252Z,9.18
2023-02-15T18:55:02.432Z,9.52
2023-02-15T18:57:32.387Z,9.82
2023-02-15T19:00:01.753Z,10.43
2023-02-15T19:02:31.355Z,10.55
2023-02-15T19:05:00.541Z,10.57
2023-02-15T19:07:32.023Z,11.85
2023-02-15T19:10:02.478Z,11.52
2023-02-15T19:12:31.963Z,10.60
2023-02-15T19:15:02.278Z,10.55
2023-02-15T19:17:31.461Z,10.35
2023-02-15T19:20:01.295Z,10.15
2023-02-15T19:22:34.110Z,11.52
2023-02-15T19:25:05.477Z,10.35
2023-02-15T19:27:36.075Z,11.18
2023-02-15T19:30:06.402Z,11.13
2023-02-15T19:32:35.503Z,11.98
2023-02-15T19:35:05.211Z,9.95
2023-02-15T19:37:37.168Z,10.88
2023-02-15T19:40:07.689Z,11.10
2023-02-15T19:42:38.027Z,12.18
2023-02-15T19:45:14.821Z,12.60
2023-02-15T19:47:44.591Z,11.93
2023-02-15T19:50:17.869Z,11.55
2023-02-15T19:52:48.782Z,11.05
2023-02-15T19:55:22.722Z,10.27
2023-02-15T19:57:55.683Z,11.77
2023-02-15T20:00:27.285Z,12.27
2023-02-15T20:03:00.831Z,14.65
2023-02-15T20:05:34.518Z,13.20
2023-02-15T20:08:08.661Z,11.82
2023-02-15T20:10:39.553Z,11.75
2023-02-15T20:13:18.011Z,12.50
2023-02-15T20:15:48.543Z,11.65
2023-02-15T20:18:22.372Z,11.30
2023-02-15T20:20:55.594Z,13.32
2023-02-15T20:23:33.707Z,11.35
2023-02-15T20:26:04.893Z,11.90
2023-02-15T20:28:36.631Z,11.63
2023-02-15T20:31:07.710Z,12.32
2023-02-15T20:33:39.210Z,12.68
2023-02-15T20:36:10.817Z,12.48
2023-02-15T20:38:43.322Z,12.98
2023-02-15T20:41:32.823Z,14.02
2023-02-15T20:44:07.774Z,12.43
2023-02-15T20:46:39.492Z,11.90
2023-02-15T20:49:11.921Z,12.32
2023-02-15T20:51:44.103Z,13.93
2023-02-15T20:54:18.729Z,13.48
2023-02-15T20:56:50.930Z,13.63
2023-02-15T20:59:23.071Z,12.85
2023-02-15T21:01:54.755Z,11.43
2023-02-15T21:04:26.488Z,12.07
2023-02-15T21:06:59.256Z,11.93
2023-02-15T21:09:32.871Z,12.65
2023-02-15T21:12:10.097Z,11.60
2023-02-15T21:14:41.763Z,12.80
2023-02-15T21:17:14.339Z,12.25
2023-02-15T21:19:45.050Z,11.98
2023-02-15T21:22:16.696Z,12.10
2023-02-15T21:24:55.087Z,12.23
2023-02-15T21:27:29.000Z,11.75
2023-02-15T21:29:59.104Z,13.25
2023-02-15T21:32:30.864Z,12.30
2023-02-15T21:35:05.660Z,14.93
2023-02-15T21:37:39.013Z,12.32
2023-02-15T21:40:17.213Z,12.40
2023-02-15T21:43:04.293Z,12.55
2023-02-15T21:45:52.336Z,14.45
2023-02-15T21:48:27.333Z,13.32
2023-02-15T21:51:15.259Z,12.60
2023-02-15T21:53:46.428Z,14.00
2023-02-15T21:56:18.791Z,14.80
2023-02-15T21:58:48.788Z,13.48
2023-02-15T22:01:22.255Z,14.70
2023-02-15T22:03:52.344Z,14.73
2023-02-15T22:06:21.729Z,13.63
2023-02-15T22:08:51.238Z,14.52
2023-02-15T22:11:23.157Z,14.52
2023-02-15T22:13:52.512Z,14.38
2023-02-15T22:16:22.728Z,12.88
2023-02-15T22:18:52.039Z,14.73
2023-02-15T22:21:21.545Z,14.73
2023-02-15T22:23:50.919Z,12.65
2023-02-15T22:26:23.177Z,15.38
2023-02-15T22:28:53.823Z,14.43
2023-02-15T22:31:24.553Z,12.68
2023-02-15T22:33:55.402Z,13.65
2023-02-15T22:36:25.867Z,12.50
2023-02-15T22:38:55.410Z,13.13
2023-02-15T22:41:26.094Z,13.57
2023-02-15T22:43:57.135Z,11.45
2023-02-15T22:46:26.929Z,12.18
2023-02-15T22:48:56.391Z,11.50
2023-02-15T22:51:26.519Z,11.75
2023-02-15T22:53:55.649Z,10.25
2023-02-15T22:56:27.812Z,12.00
2023-02-15T22:59:01.812Z,11.75
2023-02-15T23:01:32.276Z,11.80
2023-02-15T23:04:03.608Z,11.70
2023-02-15T23:06:34.282Z,12.27
2023-02-15T23:09:04.072Z,11.55
2023-02-15T23:11:33.219Z,11.77
2023-02-15T23:14:03.961Z,13.35
2023-02-15T23:16:34.789Z,13.10
2023-02-15T23:19:04.253Z,14.02
2023-02-15T23:21:34.682Z,13.25
2023-02-15T23:24:14.682Z,12.40
2023-02-15T23:26:43.851Z,12.60
2023-02-15T23:29:16.178Z,12.55
2023-02-15T23:31:46.261Z,12.32
2023-02-15T23:34:16.787Z,12.48
2023-02-15T23:36:46.806Z,12.65
2023-02-15T23:39:34.585Z,12.68
2023-02-15T23:42:05.069Z,12.70
2023-02-15T23:44:35.974Z,12.60
2023-02-15T23:47:05.603Z,14.13
2023-02-15T23:49:34.771Z,12.70
2023-02-15T23:52:04.170Z,12.15
2023-02-15T23:54:33.560Z,11.32
2023-02-15T23:57:04.009Z,12.10
2023-02-15T23:59:33.750Z,12.32
